Time;durP1;ratioP1;P1;durP2;ratioP2;P2;SDS_P1;SDS_P2;PMS_P1;PMS_P2;Temp;Humidity;BMP_temperature;BMP_pressure;BME280_temperature;BME280_humidity;BME280_pressure;Samples;Min_cycle;Max_cycle;Signal;HPM_P1;HPM_P2
2022/08/01 00:01:32;;;;;;;5.67;5.27;;;19.80;99.90;;;;;;5066344;28;20481;-73
2022/08/01 00:04:01;;;;;;;7.27;6.77;;;19.80;99.90;;;;;;5061152;28;20462;-74
2022/08/01 00:06:28;;;;;;;8.83;7.50;;;19.80;99.90;;;;;;5064126;28;20874;-73
2022/08/01 00:08:55;;;;;;;8.63;7.83;;;19.80;99.90;;;;;;5069962;28;20477;-74
2022/08/01 00:11:23;;;;;;;6.83;6.23;;;19.80;99.90;;;;;;5067599;28;20997;-72
2022/08/01 00:13:56;;;;;;;8.00;6.07;;;19.80;99.90;;;;;;5071168;28;20520;-73
2022/08/01 00:16:23;;;;;;;9.63;8.63;;;19.80;99.90;;;;;;5057634;28;20454;-74
2022/08/01 00:18:50;;;;;;;7.10;6.50;;;19.80;99.90;;;;;;5059320;28;20460;-74
2022/08/01 00:21:19;;;;;;;9.13;8.20;;;19.80;99.90;;;;;;5055218;28;20469;-73
2022/08/01 00:23:46;;;;;;;10.13;9.23;;;19.80;99.90;;;;;;5058026;28;20862;-73
2022/08/01 00:26:13;;;;;;;9.37;8.40;;;19.80;99.90;;;;;;5059949;28;20460;-73
2022/08/01 00:28:40;;;;;;;9.17;8.33;;;19.80;99.90;;;;;;5058458;28;20549;-74
2022/08/01 00:31:07;;;;;;;9.77;8.47;;;19.80;99.90;;;;;;5058933;28;20480;-73
2022/08/01 00:33:34;;;;;;;11.60;10.47;;;19.80;99.90;;;;;;5063565;28;20485;-74
2022/08/01 00:36:01;;;;;;;11.10;9.97;;;19.70;99.90;;;;;;5075788;28;20504;-75
2022/08/01 00:38:29;;;;;;;16.67;11.97;;;19.80;99.90;;;;;;5064884;28;20546;-74
2022/08/01 00:40:56;;;;;;;12.33;11.07;;;19.80;99.90;;;;;;5066410;28;20537;-73
2022/08/01 00:43:23;;;;;;;11.37;10.20;;;19.70;99.90;;;;;;5071319;28;21139;-74
2022/08/01 00:45:50;;;;;;;11.40;10.17;;;19.80;99.90;;;;;;5073464;28;20455;-73
2022/08/01 00:48:16;;;;;;;12.57;11.27;;;19.80;99.90;;;;;;5068590;28;20548;-74
2022/08/01 00:50:44;;;;;;;14.43;12.93;;;19.70;99.90;;;;;;5063960;28;20453;-74
2022/08/01 00:53:11;;;;;;;15.23;12.83;;;19.70;99.90;;;;;;5066650;28;20583;-73
2022/08/01 00:55:40;;;;;;;16.33;13.83;;;19.70;99.90;;;;;;5063302;28;20443;-72
2022/08/01 00:58:07;;;;;;;14.00;12.60;;;19.70;99.90;;;;;;5073480;28;20448;-74
2022/08/01 01:00:35;;;;;;;16.10;14.43;;;19.70;99.90;;;;;;5054920;28;20442;-73
2022/08/01 01:03:03;;;;;;;14.90;13.40;;;19.70;99.90;;;;;;5059175;28;20479;-73
2022/08/01 01:05:33;;;;;;;17.57;13.50;;;19.70;99.90;;;;;;5066492;28;21412;-74
2022/08/01 01:08:03;;;;;;;13.10;11.80;;;19.70;99.90;;;;;;5059013;28;20435;-73
2022/08/01 01:10:37;;;;;;;19.83;14.03;;;19.70;99.90;;;;;;5054258;28;20526;-73
2022/08/01 01:13:11;;;;;;;13.70;11.90;;;19.70;99.90;;;;;;5068712;28;20472;-74
2022/08/01 01:15:44;;;;;;;13.33;10.90;;;19.70;99.90;;;;;;5055436;28;20473;-73
2022/08/01 01:18:17;;;;;;;11.00;9.90;;;19.60;99.90;;;;;;5063820;28;20519;-73
2022/08/01 01:20:59;;;;;;;10.30;9.20;;;19.60;99.90;;;;;;5070497;28;20516;-73
2022/08/01 01:23:52;;;;;;;9.30;8.30;;;19.60;99.90;;;;;;5072433;28;20867;-73
2022/08/01 01:26:35;;;;;;;9.97;9.03;;;19.60;99.90;;;;;;5054499;28;20445;-73
2022/08/01 01:29:07;;;;;;;11.40;10.20;;;19.60;99.90;;;;;;5046662;28;20443;-73
2022/08/01 01:31:41;;;;;;;13.30;8.83;;;19.60;99.90;;;;;;5069909;28;20929;-73
2022/08/01 01:34:10;;;;;;;12.13;10.57;;;19.60;99.90;;;;;;5044000;28;20584;-74
2022/08/01 01:36:39;;;;;;;13.10;10.10;;;19.60;99.90;;;;;;5058664;28;20452;-72
2022/08/01 01:39:06;;;;;;;13.13;10.00;;;19.60;99.90;;;;;;5069121;28;20445;-74
2022/08/01 01:41:37;;;;;;;13.23;11.13;;;19.50;99.90;;;;;;5067904;28;20458;-75
2022/08/01 01:44:06;;;;;;;10.43;9.33;;;19.50;99.90;;;;;;5059290;28;20549;-74
2022/08/01 01:46:33;;;;;;;15.40;12.03;;;19.50;99.90;;;;;;5060516;28;20837;-74
2022/08/01 01:49:01;;;;;;;17.40;12.13;;;19.50;99.90;;;;;;5060456;28;20535;-73
2022/08/01 01:51:30;;;;;;;14.07;11.97;;;19.50;99.90;;;;;;5062854;28;20870;-74
2022/08/01 01:53:59;;;;;;;20.83;12.87;;;19.40;99.90;;;;;;5061347;28;20481;-73
2022/08/01 01:56:28;;;;;;;16.03;12.73;;;19.40;99.90;;;;;;5063584;28;20429;-73
2022/08/01 01:58:58;;;;;;;16.90;13.30;;;19.50;99.90;;;;;;5061888;28;20452;-73
2022/08/01 02:01:30;;;;;;;15.43;11.80;;;19.50;99.90;;;;;;5056925;28;20468;-73
2022/08/01 02:03:58;;;;;;;16.33;12.27;;;19.50;99.90;;;;;;5055732;28;20516;-73
2022/08/01 02:06:27;;;;;;;17.97;13.53;;;19.50;99.90;;;;;;5064447;28;20448;-72
2022/08/01 02:08:56;;;;;;;18.27;13.60;;;19.50;99.90;;;;;;5055881;28;20840;-74
2022/08/01 02:11:23;;;;;;;24.77;13.90;;;19.50;99.90;;;;;;5057040;28;20489;-75
2022/08/01 02:13:54;;;;;;;19.40;14.93;;;19.50;99.90;;;;;;5065068;28;20513;-74
2022/08/01 02:16:23;;;;;;;16.10;13.00;;;19.50;99.90;;;;;;5067773;28;20452;-74
2022/08/01 02:18:52;;;;;;;17.70;14.20;;;19.50;99.90;;;;;;5062723;28;20441;-73
2022/08/01 02:21:27;;;;;;;16.73;13.83;;;19.50;99.90;;;;;;5062043;28;20442;-73
2022/08/01 02:23:56;;;;;;;22.73;14.93;;;19.50;99.90;;;;;;5057589;28;20548;-75
2022/08/01 02:26:24;;;;;;;13.93;10.13;;;19.50;99.90;;;;;;5067549;28;20489;-75
2022/08/01 02:28:56;;;;;;;16.10;11.67;;;19.50;99.90;;;;;;5069284;28;20449;-74
2022/08/01 02:31:24;;;;;;;8.27;7.03;;;19.40;99.90;;;;;;5066662;28;20473;-74
2022/08/01 02:33:58;;;;;;;9.17;7.47;;;19.30;99.90;;;;;;5063865;28;20585;-73
2022/08/01 02:36:28;;;;;;;8.93;7.43;;;19.30;99.90;;;;;;5062310;28;20458;-75
2022/08/01 02:38:57;;;;;;;9.73;8.73;;;19.40;99.90;;;;;;5074981;28;20449;-74
2022/08/01 02:41:27;;;;;;;8.60;7.57;;;19.40;99.90;;;;;;5066569;28;20437;-74
2022/08/01 02:44:01;;;;;;;8.83;7.87;;;19.30;99.90;;;;;;5061902;28;20541;-74
2022/08/01 02:46:34;;;;;;;7.13;6.43;;;19.30;99.90;;;;;;5071666;28;20472;-73
2022/08/01 02:49:05;;;;;;;9.10;8.20;;;19.30;99.90;;;;;;5068093;28;20536;-74
2022/08/01 02:51:34;;;;;;;9.87;8.97;;;19.30;99.90;;;;;;5063779;28;20442;-74
2022/08/01 02:54:04;;;;;;;9.47;8.57;;;19.30;99.90;;;;;;5074060;28;20477;-73
2022/08/01 02:56:35;;;;;;;10.23;9.33;;;19.30;99.90;;;;;;5065880;28;20457;-74
2022/08/01 02:59:04;;;;;;;11.37;10.17;;;19.30;99.90;;;;;;5075751;28;20437;-74
2022/08/01 03:01:35;;;;;;;11.37;10.23;;;19.30;99.90;;;;;;5062749;28;20926;-74
2022/08/01 03:04:05;;;;;;;11.40;10.30;;;19.30;99.90;;;;;;5076848;28;20465;-73
2022/08/01 03:06:33;;;;;;;15.40;11.93;;;19.30;99.90;;;;;;5074151;28;20449;-73
2022/08/01 03:09:02;;;;;;;11.87;10.67;;;19.30;99.90;;;;;;5070901;28;20536;-76
2022/08/01 03:11:31;;;;;;;10.87;9.77;;;19.30;99.90;;;;;;5066860;28;20449;-75
2022/08/01 03:14:02;;;;;;;9.23;8.40;;;19.30;99.90;;;;;;5072965;28;20580;-74
2022/08/01 03:16:31;;;;;;;10.30;9.23;;;19.30;99.90;;;;;;5071974;28;20448;-73
2022/08/01 03:18:59;;;;;;;14.10;9.50;;;19.30;99.90;;;;;;5071257;28;20477;-74
2022/08/01 03:21:30;;;;;;;10.87;9.60;;;19.20;99.90;;;;;;5072333;28;20455;-73
2022/08/01 03:24:00;;;;;;;10.90;9.80;;;19.20;99.90;;;;;;5074622;28;20974;-74
2022/08/01 03:26:29;;;;;;;9.53;7.93;;;19.20;99.90;;;;;;5075057;28;20522;-74
2022/08/01 03:28:59;;;;;;;9.90;7.83;;;19.20;99.90;;;;;;5070552;28;20458;-74
2022/08/01 03:31:26;;;;;;;10.03;9.00;;;19.10;99.90;;;;;;5072808;28;20451;-75
2022/08/01 03:33:54;;;;;;;9.27;8.27;;;19.10;99.90;;;;;;5065154;28;20505;-74
2022/08/01 03:36:26;;;;;;;12.53;9.20;;;19.10;99.90;;;;;;5060677;28;20458;-74
2022/08/01 03:38:58;;;;;;;9.00;8.10;;;19.10;99.90;;;;;;5066462;28;20453;-73
2022/08/01 03:41:28;;;;;;;9.30;8.20;;;19.10;99.90;;;;;;5069939;28;20471;-74
2022/08/01 03:43:58;;;;;;;8.47;7.63;;;19.00;99.90;;;;;;5064692;28;20516;-73
2022/08/01 03:46:31;;;;;;;7.10;6.40;;;19.00;99.90;;;;;;5065034;28;20506;-73
2022/08/01 03:49:04;;;;;;;7.47;6.70;;;19.10;99.90;;;;;;5059114;28;20437;-74
2022/08/01 03:51:32;;;;;;;6.97;5.90;;;19.10;99.90;;;;;;5057749;28;20525;-74
2022/08/01 03:54:04;;;;;;;7.00;6.30;;;19.10;99.90;;;;;;5068443;28;20540;-73
2022/08/01 03:56:33;;;;;;;6.07;5.47;;;19.10;99.90;;;;;;5064403;28;20474;-73
2022/08/01 03:59:00;;;;;;;6.60;5.90;;;19.00;99.90;;;;;;5056202;28;20930;-75
2022/08/01 04:01:29;;;;;;;6.10;5.47;;;19.00;99.90;;;;;;5061468;28;20892;-74
2022/08/01 04:03:57;;;;;;;6.23;5.63;;;19.00;99.90;;;;;;5058875;28;20473;-74
2022/08/01 04:06:24;;;;;;;6.80;5.47;;;19.00;99.90;;;;;;5060070;28;20480;-73
2022/08/01 04:08:56;;;;;;;6.10;5.60;;;19.00;99.90;;;;;;5070969;28;20445;-72
2022/08/01 04:11:27;;;;;;;7.33;5.80;;;19.10;99.90;;;;;;5074469;28;20528;-74
2022/08/01 04:13:55;;;;;;;7.80;7.10;;;19.10;99.90;;;;;;5062895;28;20868;-73
2022/08/01 04:16:22;;;;;;;8.17;7.47;;;19.10;99.90;;;;;;5066337;28;20870;-73
2022/08/01 04:18:49;;;;;;;8.60;7.80;;;19.10;99.90;;;;;;5062201;28;20441;-74
2022/08/01 04:21:20;;;;;;;9.93;8.50;;;19.10;99.90;;;;;;5058835;28;20454;-74
2022/08/01 04:23:48;;;;;;;9.47;8.57;;;19.10;99.90;;;;;;5057832;28;20983;-74
2022/08/01 04:26:17;;;;;;;11.77;8.63;;;19.20;99.90;;;;;;5056749;28;20452;-74
2022/08/01 04:28:47;;;;;;;7.73;6.93;;;19.20;99.90;;;;;;5057813;28;20519;-74
2022/08/01 04:31:17;;;;;;;8.90;8.00;;;19.20;99.90;;;;;;5057300;28;20448;-74
2022/08/01 04:33:50;;;;;;;6.80;5.47;;;19.20;99.90;;;;;;5070174;28;20510;-73
2022/08/01 04:36:20;;;;;;;4.43;3.63;;;19.10;99.90;;;;;;5068081;28;20477;-73
2022/08/01 04:38:51;;;;;;;4.70;4.30;;;19.10;99.90;;;;;;5072821;28;20852;-74
2022/08/01 04:41:19;;;;;;;6.00;4.77;;;19.10;99.90;;;;;;5071278;28;20465;-73
2022/08/01 04:43:48;;;;;;;4.10;3.13;;;19.10;99.90;;;;;;5072534;28;20473;-74
2022/08/01 04:46:17;;;;;;;5.70;3.60;;;19.10;99.90;;;;;;5065544;28;20506;-74
2022/08/01 04:48:44;;;;;;;2.83;2.20;;;19.10;99.90;;;;;;5057816;28;20453;-72
2022/08/01 04:51:16;;;;;;;3.50;3.20;;;19.10;99.90;;;;;;5073018;28;20889;-73
2022/08/01 04:53:43;;;;;;;1.67;1.57;;;19.10;99.90;;;;;;5055379;28;20471;-75
2022/08/01 04:56:12;;;;;;;3.53;1.63;;;19.00;99.90;;;;;;5062343;28;20479;-76
2022/08/01 04:58:40;;;;;;;2.57;2.20;;;18.90;99.90;;;;;;5062310;28;20446;-75
2022/08/01 05:01:09;;;;;;;5.07;1.90;;;19.00;99.90;;;;;;5060665;28;20831;-74
2022/08/01 05:03:35;;;;;;;4.80;2.00;;;19.00;99.90;;;;;;5065692;28;20933;-74
2022/08/01 05:06:03;;;;;;;4.20;1.97;;;19.00;99.90;;;;;;5060427;28;20456;-74
2022/08/01 05:08:29;;;;;;;4.10;1.73;;;19.00;99.90;;;;;;5062802;28;20453;-73
2022/08/01 05:10:56;;;;;;;4.10;1.67;;;19.00;99.90;;;;;;5061174;28;20526;-73
2022/08/01 05:13:23;;;;;;;3.17;2.57;;;19.00;99.90;;;;;;5057365;28;20465;-75
2022/08/01 05:15:50;;;;;;;4.73;2.83;;;19.00;99.90;;;;;;5072327;28;20572;-75
2022/08/01 05:18:18;;;;;;;2.90;1.67;;;19.00;99.90;;;;;;5071405;28;20479;-75
2022/08/01 05:20:45;;;;;;;3.90;1.90;;;19.00;99.90;;;;;;5066755;28;20486;-75
2022/08/01 05:23:12;;;;;;;2.40;2.00;;;19.00;99.90;;;;;;5069377;28;20986;-74
2022/08/01 05:25:39;;;;;;;2.37;1.80;;;19.00;99.90;;;;;;5071513;28;20476;-73
2022/08/01 05:28:06;;;;;;;2.90;1.87;;;18.90;99.90;;;;;;5071707;28;20453;-74
2022/08/01 05:30:33;;;;;;;3.13;1.93;;;19.00;99.90;;;;;;5070879;28;20437;-74
2022/08/01 05:33:00;;;;;;;3.00;1.93;;;19.00;99.90;;;;;;5073571;28;20488;-73
2022/08/01 05:35:28;;;;;;;4.07;2.33;;;19.00;99.90;;;;;;5075142;28;20553;-75
2022/08/01 05:37:55;;;;;;;4.50;2.30;;;19.00;99.90;;;;;;5066847;28;20479;-74
2022/08/01 05:40:22;;;;;;;2.30;2.07;;;19.10;99.90;;;;;;5063586;28;20517;-75
2022/08/01 05:42:49;;;;;;;4.40;2.40;;;19.00;99.90;;;;;;5056968;28;20526;-75
2022/08/01 05:45:16;;;;;;;4.53;2.43;;;19.00;99.90;;;;;;5068702;28;20842;-79
2022/08/01 05:47:43;;;;;;;10.03;2.67;;;18.80;99.90;;;;;;5073413;28;20505;-77
2022/08/01 05:50:10;;;;;;;3.13;2.60;;;18.80;99.90;;;;;;5071250;28;20450;-75
2022/08/01 05:52:38;;;;;;;6.20;3.10;;;18.70;99.90;;;;;;5073862;28;20971;-76
2022/08/01 05:55:07;;;;;;;7.03;4.00;;;18.80;99.90;;;;;;5062905;28;20476;-74
2022/08/01 05:57:34;;;;;;;6.00;3.97;;;18.70;99.90;;;;;;5065030;28;20458;-76
2022/08/01 06:00:01;;;;;;;4.10;3.00;;;18.80;99.90;;;;;;5062296;28;20500;-74
2022/08/01 06:02:29;;;;;;;5.87;3.77;;;18.80;99.90;;;;;;5072919;28;20434;-76
2022/08/01 06:04:56;;;;;;;10.60;3.53;;;18.80;99.90;;;;;;5070196;28;20507;-73
2022/08/01 06:07:23;;;;;;;7.43;3.27;;;18.90;99.90;;;;;;5064204;28;20573;-74
2022/08/01 06:09:51;;;;;;;8.00;2.93;;;18.90;99.90;;;;;;5065630;28;20453;-74
2022/08/01 06:12:18;;;;;;;6.57;3.57;;;19.10;99.90;;;;;;5069305;28;20461;-75
2022/08/01 06:14:45;;;;;;;10.20;3.97;;;19.10;99.90;;;;;;5064081;28;20924;-75
2022/08/01 06:17:12;;;;;;;13.00;4.17;;;19.10;99.90;;;;;;5060144;28;20865;-73
2022/08/01 06:19:39;;;;;;;7.40;3.90;;;19.10;99.90;;;;;;5064692;28;20497;-76
2022/08/01 06:22:06;;;;;;;8.87;3.97;;;19.10;99.90;;;;;;5062730;28;20453;-74
2022/08/01 06:24:33;;;;;;;10.93;4.37;;;19.00;99.90;;;;;;5064145;28;20533;-77
2022/08/01 06:27:01;;;;;;;12.33;4.63;;;19.10;99.90;;;;;;5069855;28;20456;-75
2022/08/01 06:29:30;;;;;;;7.40;3.40;;;19.10;99.90;;;;;;5063916;28;20481;-74
2022/08/01 06:31:57;;;;;;;11.03;4.43;;;19.20;99.90;;;;;;5063172;28;20516;-74
2022/08/01 06:34:24;;;;;;;12.73;3.80;;;19.10;99.90;;;;;;5060457;28;20987;-73
2022/08/01 06:36:52;;;;;;;7.87;4.00;;;19.20;99.90;;;;;;5054821;28;20563;-72
2022/08/01 06:39:19;;;;;;;9.03;3.90;;;19.30;99.90;;;;;;5061480;28;20469;-73
2022/08/01 06:41:46;;;;;;;13.90;4.23;;;19.30;99.90;;;;;;5053676;28;20455;-74
2022/08/01 06:44:15;;;;;;;9.40;5.20;;;19.40;99.90;;;;;;5061588;28;20819;-75
2022/08/01 06:46:42;;;;;;;18.03;5.20;;;19.40;99.90;;;;;;5066220;28;20470;-74
2022/08/01 06:49:08;;;;;;;11.77;5.30;;;19.40;99.90;;;;;;5063586;28;20453;-74
2022/08/01 06:51:35;;;;;;;15.63;7.67;;;19.40;99.90;;;;;;5064776;28;20457;-74
2022/08/01 06:54:02;;;;;;;16.23;4.90;;;19.40;99.90;;;;;;5056300;28;20532;-74
2022/08/01 06:56:29;;;;;;;10.07;4.00;;;19.30;99.90;;;;;;5066700;28;20567;-75
2022/08/01 06:59:00;;;;;;;7.80;4.80;;;19.30;99.90;;;;;;5064618;28;22004;-73
2022/08/01 07:01:29;;;;;;;16.90;4.57;;;19.20;99.90;;;;;;5070569;28;20930;-74
2022/08/01 07:03:56;;;;;;;11.53;4.93;;;19.20;99.90;;;;;;5069242;28;20552;-75
2022/08/01 07:06:24;;;;;;;14.63;4.73;;;19.30;99.90;;;;;;5064232;28;20437;-75
2022/08/01 07:08:51;;;;;;;21.17;5.73;;;19.40;99.90;;;;;;5063730;28;20442;-75
2022/08/01 07:11:18;;;;;;;7.80;4.77;;;19.50;99.90;;;;;;5061126;28;20466;-75
2022/08/01 07:13:46;;;;;;;14.07;5.90;;;19.60;99.90;;;;;;5059456;28;20954;-75
2022/08/01 07:16:13;;;;;;;12.80;5.73;;;19.60;99.90;;;;;;5057154;28;20482;-75
2022/08/01 07:18:41;;;;;;;13.83;5.53;;;19.70;99.90;;;;;;5069448;28;20452;-75
2022/08/01 07:21:08;;;;;;;21.70;8.27;;;19.70;99.90;;;;;;5072228;28;20540;-76
2022/08/01 07:23:35;;;;;;;16.83;5.50;;;19.70;99.90;;;;;;5065751;28;20867;-76
2022/08/01 07:26:04;;;;;;;12.20;4.57;;;19.80;99.90;;;;;;5067448;28;20525;-76
2022/08/01 07:28:31;;;;;;;12.73;4.17;;;19.80;99.90;;;;;;5070676;28;20529;-75
2022/08/01 07:30:58;;;;;;;16.23;5.57;;;19.80;99.90;;;;;;5068334;28;20509;-76
2022/08/01 07:33:25;;;;;;;14.33;4.43;;;19.80;99.90;;;;;;5068582;28;20479;-75
2022/08/01 07:35:53;;;;;;;15.03;5.30;;;19.80;99.90;;;;;;5067532;28;20473;-76
2022/08/01 07:38:20;;;;;;;9.10;3.70;;;19.90;99.90;;;;;;5074481;28;20531;-76
2022/08/01 07:40:48;;;;;;;15.90;5.30;;;20.00;99.90;;;;;;5073387;28;20524;-75
2022/08/01 07:43:16;;;;;;;15.77;5.13;;;19.90;99.90;;;;;;5070449;28;20490;-74
2022/08/01 07:45:43;;;;;;;17.13;4.73;;;19.90;99.90;;;;;;5070577;28;20454;-74
2022/08/01 07:48:10;;;;;;;12.00;4.37;;;20.00;99.90;;;;;;5067489;28;20482;-73
2022/08/01 07:50:36;;;;;;;10.00;4.00;;;20.00;99.90;;;;;;5071065;28;20474;-75
2022/08/01 07:53:05;;;;;;;12.57;4.60;;;20.00;99.90;;;;;;5062390;28;20466;-75
2022/08/01 07:55:32;;;;;;;15.10;4.57;;;20.00;99.90;;;;;;5070475;28;20516;-75
2022/08/01 07:57:59;;;;;;;15.50;4.90;;;20.00;99.90;;;;;;5073875;28;20858;-75
2022/08/01 08:00:27;;;;;;;11.23;4.80;;;20.00;99.90;;;;;;5069068;28;20539;-75
2022/08/01 08:02:54;;;;;;;20.63;5.43;;;20.10;99.90;;;;;;5074905;28;20456;-75
2022/08/01 08:05:21;;;;;;;12.50;5.03;;;20.10;99.90;;;;;;5066011;28;20437;-75
2022/08/01 08:07:48;;;;;;;8.73;4.57;;;20.80;99.90;;;;;;5070925;28;20531;-75
2022/08/01 08:10:16;;;;;;;12.77;4.57;;;21.20;99.90;;;;;;5073774;28;20515;-77
2022/08/01 08:12:43;;;;;;;10.00;4.27;;;21.40;99.90;;;;;;5075151;28;20531;-75
2022/08/01 08:15:11;;;;;;;9.27;3.73;;;21.60;99.90;;;;;;5076729;28;20547;-75
2022/08/01 08:17:39;;;;;;;13.17;4.90;;;21.50;99.90;;;;;;5073770;28;20475;-76
2022/08/01 08:20:08;;;;;;;18.80;5.93;;;21.70;99.90;;;;;;5074589;28;20506;-75
2022/08/01 08:22:35;;;;;;;9.10;3.60;;;22.90;99.90;;;;;;5074802;28;20962;-75
2022/08/01 08:25:02;;;;;;;15.93;3.80;;;24.50;99.90;;;;;;5074812;28;20483;-76
2022/08/01 08:27:31;;;;;;;6.87;2.50;;;26.00;99.90;;;;;;5075020;28;20433;-76
2022/08/01 08:29:58;;;;;;;14.17;5.00;;;27.30;95.70;;;;;;5082443;28;20505;-75
2022/08/01 08:32:26;;;;;;;11.40;3.23;;;27.70;94.20;;;;;;5091313;28;21091;-75
2022/08/01 08:35:04;;;;;;;8.23;2.77;;;27.50;93.10;;;;;;5078448;28;20579;-76
2022/08/01 08:37:31;;;;;;;9.03;3.07;;;26.80;93.60;;;;;;5075311;28;20849;-76
2022/08/01 08:39:58;;;;;;;9.60;3.87;;;26.20;95.00;;;;;;5067309;28;20438;-76
2022/08/01 08:42:26;;;;;;;10.57;3.50;;;25.30;95.90;;;;;;5058397;28;20855;-75
2022/08/01 08:44:55;;;;;;;10.87;3.53;;;24.60;98.30;;;;;;5068984;28;20517;-75
2022/08/01 08:47:25;;;;;;;14.97;4.00;;;24.30;99.90;;;;;;5070371;28;20456;-76
2022/08/01 08:49:54;;;;;;;12.70;4.47;;;24.00;99.90;;;;;;5068548;28;20442;-77
2022/08/01 08:52:22;;;;;;;14.27;4.50;;;23.60;99.90;;;;;;5076671;28;20468;-76
2022/08/01 08:54:52;;;;;;;14.93;3.60;;;24.20;99.90;;;;;;5068575;28;20464;-76
2022/08/01 08:57:21;;;;;;;15.93;3.43;;;25.60;98.80;;;;;;5075126;28;20481;-75
2022/08/01 08:59:48;;;;;;;8.50;2.43;;;27.10;93.90;;;;;;5070920;28;20452;-76
2022/08/01 09:02:16;;;;;;;10.83;3.20;;;28.30;91.10;;;;;;5073460;28;20496;-76
2022/08/01 09:04:44;;;;;;;13.53;3.63;;;29.20;88.90;;;;;;5070064;28;20473;-76
2022/08/01 09:07:11;;;;;;;7.93;3.33;;;28.90;87.40;;;;;;5073640;28;20441;-75
2022/08/01 09:09:38;;;;;;;14.60;3.03;;;28.70;89.00;;;;;;5072535;28;20449;-77
2022/08/01 09:12:06;;;;;;;10.43;3.10;;;28.80;87.60;;;;;;5073836;28;20870;-76
2022/08/01 09:14:35;;;;;;;8.90;4.60;;;28.70;87.00;;;;;;5072977;28;20548;-76
2022/08/01 09:17:06;;;;;;;16.50;3.13;;;28.80;87.50;;;;;;5071219;28;20883;-76
2022/08/01 09:19:40;;;;;;;15.23;3.03;;;28.80;87.20;;;;;;5072605;28;20516;-77
2022/08/01 09:22:09;;;;;;;8.27;3.27;;;28.10;86.30;;;;;;5067135;28;20450;-75
2022/08/01 09:24:37;;;;;;;7.03;2.70;;;28.10;88.00;;;;;;5073139;28;20508;-74
2022/08/01 09:27:18;;;;;;;6.43;2.47;;;28.20;88.10;;;;;;5069730;28;20445;-74
2022/08/01 09:29:48;;;;;;;13.53;3.37;;;28.50;88.20;;;;;;5066530;28;20474;-76
2022/08/01 09:32:15;;;;;;;4.23;2.20;;;29.00;85.30;;;;;;5073416;28;20985;-75
2022/08/01 09:34:43;;;;;;;11.67;3.03;;;28.90;85.00;;;;;;5073841;28;20504;-75
2022/08/01 09:37:11;;;;;;;11.23;2.80;;;28.70;86.70;;;;;;5061389;28;20532;-77
2022/08/01 09:39:42;;;;;;;10.80;2.90;;;28.80;85.50;;;;;;5066293;28;20872;-76
2022/08/01 09:42:24;;;;;;;10.10;2.77;;;28.30;85.90;;;;;;5083309;28;20433;-76
2022/08/01 09:44:51;;;;;;;10.20;3.17;;;28.30;86.10;;;;;;5067648;28;20815;-77
2022/08/01 09:47:21;;;;;;;8.43;2.67;;;28.60;86.10;;;;;;5071598;28;20447;-74
2022/08/01 09:49:55;;;;;;;7.97;2.67;;;29.00;82.40;;;;;;5054974;28;20460;-76
2022/08/01 09:52:23;;;;;;;15.67;3.70;;;29.20;82.00;;;;;;5058921;28;20448;-76
2022/08/01 09:54:55;;;;;;;7.27;2.70;;;28.90;82.70;;;;;;5058407;28;20466;-76
2022/08/01 09:57:22;;;;;;;12.30;2.57;;;28.30;83.50;;;;;;5058102;28;20469;-76
2022/08/01 09:59:51;;;;;;;6.80;2.80;;;28.50;83.30;;;;;;5056659;28;20454;-76
2022/08/01 10:02:31;;;;;;;7.17;2.70;;;28.80;79.90;;;;;;5060374;28;20461;-77
2022/08/01 10:05:00;;;;;;;10.43;2.10;;;29.20;79.80;;;;;;5045441;28;20540;-76
2022/08/01 10:07:27;;;;;;;6.83;2.60;;;29.50;79.80;;;;;;5061445;28;20433;-76
2022/08/01 10:09:54;;;;;;;6.37;2.30;;;29.70;80.50;;;;;;5058066;28;20849;-76
2022/08/01 10:12:23;;;;;;;7.87;2.00;;;30.10;78.90;;;;;;5060494;28;20473;-75
2022/08/01 10:14:55;;;;;;;9.13;2.53;;;30.30;78.50;;;;;;5064677;28;20476;-74
2022/08/01 10:17:24;;;;;;;7.40;2.20;;;29.90;76.90;;;;;;5056171;28;20477;-77
2022/08/01 10:19:54;;;;;;;5.37;1.97;;;29.60;75.20;;;;;;5058851;28;20860;-75
2022/08/01 10:22:26;;;;;;;4.23;1.93;;;29.90;76.20;;;;;;5057966;28;20453;-77
2022/08/01 10:24:56;;;;;;;5.80;2.57;;;29.80;75.80;;;;;;5057532;28;20465;-76
2022/08/01 10:27:24;;;;;;;7.37;2.27;;;29.80;77.60;;;;;;5056826;28;20438;-76
2022/08/01 10:29:56;;;;;;;7.60;2.20;;;29.60;77.00;;;;;;5068018;28;20971;-76
2022/08/01 10:32:24;;;;;;;7.03;1.97;;;29.70;78.20;;;;;;5056365;28;20434;-76
2022/08/01 10:34:51;;;;;;;6.20;2.83;;;29.60;75.60;;;;;;5067297;28;20529;-76
2022/08/01 10:37:19;;;;;;;7.50;1.80;;;29.40;76.30;;;;;;5066888;28;20470;-75
2022/08/01 10:39:48;;;;;;;7.73;2.57;;;29.30;76.80;;;;;;5071756;28;20623;-75
2022/08/01 10:42:15;;;;;;;8.53;2.27;;;29.50;77.60;;;;;;5062158;28;20532;-76
2022/08/01 10:44:45;;;;;;;15.13;2.80;;;29.40;78.00;;;;;;5053053;28;21028;-75
2022/08/01 10:47:15;;;;;;;8.33;1.93;;;28.90;78.20;;;;;;5060000;28;20441;-76
2022/08/01 10:49:46;;;;;;;17.20;2.83;;;28.40;79.40;;;;;;5054701;28;20481;-76
2022/08/01 10:52:17;;;;;;;10.97;2.30;;;28.10;79.80;;;;;;5056445;28;20460;-76
2022/08/01 10:54:45;;;;;;;9.30;2.30;;;27.80;80.60;;;;;;5064637;28;20960;-74
2022/08/01 10:57:14;;;;;;;11.07;2.50;;;27.60;82.90;;;;;;5063715;28;20556;-75
2022/08/01 10:59:49;;;;;;;10.90;2.97;;;27.30;82.00;;;;;;5069614;28;20457;-76
2022/08/01 11:02:28;;;;;;;10.07;3.20;;;26.90;83.10;;;;;;5066957;28;20815;-76
2022/08/01 11:04:56;;;;;;;7.57;2.10;;;26.70;84.50;;;;;;5046260;28;20476;-77
2022/08/01 11:07:38;;;;;;;8.00;2.30;;;26.40;83.90;;;;;;5064307;28;20437;-76
2022/08/01 11:10:09;;;;;;;10.83;4.00;;;26.30;84.00;;;;;;5068144;28;20453;-77
2022/08/01 11:12:42;;;;;;;10.00;2.07;;;26.20;84.80;;;;;;5059633;28;20457;-77
2022/08/01 11:15:27;;;;;;;6.07;3.00;;;26.10;86.40;;;;;;5065777;28;20446;-77
2022/08/01 11:17:55;;;;;;;7.20;2.40;;;26.10;85.90;;;;;;5071546;28;20567;-75
2022/08/01 11:20:25;;;;;;;9.13;3.20;;;26.10;85.30;;;;;;5072048;28;20544;-76
2022/08/01 11:23:28;;;;;;;8.53;2.87;;;26.10;85.90;;;;;;5067705;28;20530;-76
2022/08/01 11:26:16;;;;;;;6.00;2.60;;;26.40;84.50;;;;;;5070854;28;20441;-76
2022/08/01 11:29:09;;;;;;;10.73;2.77;;;26.40;85.30;;;;;;5060622;28;20504;-75
2022/08/01 11:31:36;;;;;;;8.87;3.30;;;26.30;84.50;;;;;;5072674;28;20449;-77
2022/08/01 11:34:03;;;;;;;8.50;2.70;;;26.10;84.70;;;;;;5085366;28;20549;-75
2022/08/01 11:36:30;;;;;;;10.40;2.60;;;26.00;86.30;;;;;;5075268;28;20576;-76
2022/08/01 11:39:15;;;;;;;12.73;1.80;;;26.10;86.60;;;;;;5072642;28;20455;-75
2022/08/01 11:41:42;;;;;;;10.93;2.53;;;26.30;86.30;;;;;;5069745;28;20443;-75
2022/08/01 11:44:13;;;;;;;8.40;2.70;;;26.30;84.70;;;;;;5075235;28;20469;-76
2022/08/01 11:46:51;;;;;;;8.70;2.30;;;26.00;86.20;;;;;;5066086;28;20461;-76
2022/08/01 11:49:45;;;;;;;15.10;3.60;;;25.80;87.40;;;;;;5074706;28;20831;-77
2022/08/01 11:52:14;;;;;;;6.73;3.53;;;25.80;86.90;;;;;;5074798;28;20498;-76
2022/08/01 11:54:42;;;;;;;12.67;3.70;;;26.00;87.00;;;;;;5072386;28;20465;-75
2022/08/01 11:57:11;;;;;;;8.60;2.53;;;26.00;85.50;;;;;;5064257;28;20573;-76
2022/08/01 11:59:45;;;;;;;11.37;3.83;;;26.20;87.00;;;;;;5064647;28;20877;-77
2022/08/01 12:02:21;;;;;;;15.37;3.90;;;26.50;87.10;;;;;;5056682;28;20936;-77
2022/08/01 12:04:53;;;;;;;7.60;2.80;;;26.60;85.70;;;;;;5071537;28;20464;-76
2022/08/01 12:07:20;;;;;;;8.83;3.47;;;26.60;84.80;;;;;;5064380;28;20556;-75
2022/08/01 12:09:48;;;;;;;7.37;3.60;;;26.70;84.30;;;;;;5070758;28;21003;-75
2022/08/01 12:12:19;;;;;;;10.03;2.70;;;26.50;84.70;;;;;;5058965;28;20482;-74
2022/08/01 12:14:55;;;;;;;8.30;2.90;;;26.40;84.20;;;;;;5060143;28;20468;-75
2022/08/01 12:17:28;;;;;;;6.97;2.30;;;26.00;83.30;;;;;;5069049;28;20493;-76
2022/08/01 12:19:55;;;;;;;7.00;2.77;;;25.60;84.70;;;;;;5063533;28;20472;-75
2022/08/01 12:22:24;;;;;;;11.53;2.80;;;25.30;85.60;;;;;;5057678;28;20480;-75
2022/08/01 12:24:52;;;;;;;10.17;2.80;;;25.20;87.10;;;;;;5069161;28;20973;-76
2022/08/01 12:27:29;;;;;;;14.00;2.50;;;25.30;87.50;;;;;;5070476;28;20966;-75
2022/08/01 12:29:58;;;;;;;4.30;2.20;;;25.40;86.30;;;;;;5045778;28;20520;-75
2022/08/01 12:32:29;;;;;;;5.03;1.80;;;25.60;85.80;;;;;;5062558;28;20863;-75
2022/08/01 12:34:58;;;;;;;6.23;2.20;;;25.60;85.80;;;;;;5068699;28;20484;-75
2022/08/01 12:37:25;;;;;;;9.23;3.13;;;25.60;86.50;;;;;;5064355;28;20481;-75
2022/08/01 12:39:52;;;;;;;12.27;3.60;;;25.60;86.00;;;;;;5058399;28;20446;-76
2022/08/01 12:42:19;;;;;;;9.67;2.67;;;25.60;85.80;;;;;;5070823;28;20488;-75
2022/08/01 12:44:48;;;;;;;6.77;2.47;;;25.40;86.20;;;;;;5068115;28;20469;-74
2022/08/01 12:47:17;;;;;;;5.73;2.50;;;25.40;86.60;;;;;;5070679;28;20495;-74
2022/08/01 12:49:45;;;;;;;9.10;3.60;;;25.30;85.70;;;;;;5068059;28;20481;-75
2022/08/01 12:52:13;;;;;;;10.93;3.87;;;25.10;86.00;;;;;;5064808;28;20451;-76